createdAt,value
2023-04-05T00:00:28.952Z,4.90
2023-04-05T00:01:32.159Z,4.50
2023-04-05T00:02:34.274Z,3.90
2023-04-05T00:03:36.362Z,4.90
2023-04-05T00:04:39.213Z,5.30
2023-04-05T00:05:41.424Z,4.90
2023-04-05T00:06:57.509Z,5.40
2023-04-05T00:08:00.796Z,5.00
2023-04-05T00:09:04.673Z,5.30
2023-04-05T00:10:09.259Z,5.10
2023-04-05T00:11:11.541Z,5.20
2023-04-05T00:12:13.749Z,4.60
2023-04-05T00:13:16.305Z,4.80
2023-04-05T00:14:18.791Z,4.90
2023-04-05T00:15:21.992Z,5.60
2023-04-05T00:16:24.703Z,3.70
2023-04-05T00:17:27.139Z,5.50
2023-04-05T00:18:29.490Z,6.20
2023-04-05T00:19:31.576Z,5.80
2023-04-05T00:20:34.136Z,6.90
2023-04-05T00:21:36.220Z,7.30
2023-04-05T00:22:40.864Z,7.20
2023-04-05T00:23:43.151Z,7.50
2023-04-05T00:24:45.336Z,7.30
2023-04-05T00:25:48.344Z,6.00
2023-04-05T00:26:51.193Z,6.60
2023-04-05T00:27:53.392Z,5.80
2023-04-05T00:28:55.542Z,6.50
2023-04-05T00:29:58.212Z,6.80
2023-04-05T00:31:00.454Z,4.70
2023-04-05T00:32:03.423Z,5.90
2023-04-05T00:33:05.921Z,5.00
2023-04-05T00:34:08.663Z,4.80
2023-04-05T00:35:10.823Z,5.10
2023-04-05T00:36:17.492Z,4.90
2023-04-05T00:37:21.674Z,4.00
2023-04-05T00:38:24.347Z,3.80
2023-04-05T00:39:26.517Z,3.80
2023-04-05T00:40:29.211Z,5.00
2023-04-05T00:41:31.600Z,4.60
2023-04-05T00:42:34.147Z,4.00
2023-04-05T00:43:36.343Z,2.90
2023-04-05T00:44:39.366Z,3.18
2023-04-05T00:45:42.070Z,3.60
2023-04-05T00:46:44.680Z,4.50
2023-04-05T00:47:47.063Z,3.40
2023-04-05T00:48:50.856Z,3.80
2023-04-05T00:49:53.349Z,4.20
2023-04-05T00:50:58.529Z,3.50
2023-04-05T00:52:00.759Z,4.00
2023-04-05T00:53:03.088Z,3.80
2023-04-05T00:54:06.406Z,3.70
2023-04-05T00:55:10.346Z,3.20
2023-04-05T00:56:14.023Z,4.00
2023-04-05T00:57:16.865Z,3.90
2023-04-05T00:58:20.109Z,3.80
2023-04-05T00:59:23.051Z,4.10
2023-04-05T01:00:26.400Z,3.50
2023-04-05T01:01:29.275Z,3.00
2023-04-05T01:02:34.101Z,3.80
2023-04-05T01:03:37.675Z,3.40
2023-04-05T01:04:41.635Z,3.20
2023-04-05T01:05:49.422Z,2.40
2023-04-05T01:07:08.535Z,3.20
2023-04-05T01:08:28.801Z,1.80
2023-04-05T01:09:46.694Z,3.00
2023-04-05T01:10:52.004Z,2.50
2023-04-05T01:11:57.580Z,2.20
2023-04-05T01:13:01.053Z,2.90
2023-04-05T01:14:05.039Z,2.30
2023-04-05T01:15:08.686Z,2.40
2023-04-05T01:16:12.420Z,2.50
2023-04-05T01:17:16.067Z,2.60
2023-04-05T01:18:19.023Z,2.10
2023-04-05T01:19:21.635Z,2.00
2023-04-05T01:20:25.093Z,3.00
2023-04-05T01:21:37.144Z,2.90
2023-04-05T01:22:49.330Z,1.80
2023-04-05T01:25:42.429Z,3.00
2023-04-05T01:27:03.541Z,1.90
2023-04-05T01:28:21.152Z,2.00
2023-04-05T01:29:43.792Z,2.30
2023-04-05T01:32:10.911Z,2.20
2023-04-05T01:33:36.490Z,2.00
2023-04-05T01:34:45.342Z,2.50
2023-04-05T01:36:11.306Z,1.50
2023-04-05T01:37:16.635Z,2.20
2023-04-05T01:38:22.392Z,2.00
2023-04-05T01:39:25.219Z,2.00
2023-04-05T01:40:28.835Z,2.27
2023-04-05T01:41:31.784Z,1.00
2023-04-05T01:42:47.009Z,1.90
2023-04-05T01:43:49.082Z,0.70
2023-04-05T01:44:53.720Z,2.00
2023-04-05T01:45:56.015Z,2.10
2023-04-05T01:46:58.500Z,2.40
2023-04-05T01:48:00.909Z,1.70
2023-04-05T01:49:04.346Z,2.00
2023-04-05T01:50:09.428Z,1.70
2023-04-05T01:51:11.547Z,2.40
2023-04-05T01:52:14.001Z,2.10
2023-04-05T01:53:16.184Z,1.80
2023-04-05T01:54:18.342Z,2.60
2023-04-05T01:55:20.567Z,2.20
2023-04-05T01:56:23.590Z,2.27
2023-04-05T01:57:26.255Z,2.00
2023-04-05T01:58:29.942Z,3.00
2023-04-05T01:59:32.488Z,2.00
2023-04-05T02:00:35.481Z,2.20
2023-04-05T02:01:39.772Z,2.10
2023-04-05T02:02:42.082Z,1.70
2023-04-05T02:03:45.293Z,2.00
2023-04-05T02:04:47.904Z,1.73
2023-04-05T02:05:50.480Z,1.00
2023-04-05T02:06:52.836Z,1.70
2023-04-05T02:07:55.194Z,1.50
2023-04-05T02:08:57.718Z,1.80
2023-04-05T02:10:00.309Z,2.30
2023-04-05T02:11:02.562Z,2.20
2023-04-05T02:12:05.633Z,2.00
2023-04-05T02:13:08.952Z,2.00
2023-04-05T02:14:11.177Z,2.00
2023-04-05T02:15:26.925Z,2.00
2023-04-05T02:16:29.785Z,2.00
2023-04-05T02:17:33.072Z,2.30
2023-04-05T02:18:37.314Z,2.00
2023-04-05T02:19:39.427Z,2.40
2023-04-05T02:20:42.421Z,2.00
2023-04-05T02:21:44.858Z,2.00
2023-04-05T02:22:46.926Z,2.00
2023-04-05T02:23:49.320Z,2.60
2023-04-05T02:24:53.298Z,2.40
2023-04-05T02:25:56.255Z,1.80
2023-04-05T02:26:59.608Z,2.20
2023-04-05T02:28:02.064Z,2.20
2023-04-05T02:29:04.267Z,1.90
2023-04-05T02:30:07.320Z,2.20
2023-04-05T02:31:11.442Z,1.90
2023-04-05T02:32:15.440Z,2.60
2023-04-05T02:33:17.907Z,2.50
2023-04-05T02:34:20.437Z,2.60
2023-04-05T02:35:22.736Z,2.90
2023-04-05T02:36:25.187Z,1.70
2023-04-05T02:37:27.752Z,2.20
2023-04-05T02:38:30.302Z,2.60
2023-04-05T02:39:32.587Z,2.50
2023-04-05T02:40:35.305Z,2.27
2023-04-05T02:41:37.382Z,2.10
2023-04-05T02:42:39.873Z,2.80
2023-04-05T02:43:42.048Z,2.50
2023-04-05T02:44:45.310Z,2.90
2023-04-05T02:45:49.858Z,3.00
2023-04-05T02:48:07.515Z,2.20
2023-04-05T02:49:10.799Z,2.82
2023-04-05T02:50:14.662Z,1.50
2023-04-05T02:51:19.222Z,2.20
2023-04-05T02:52:23.047Z,2.40
2023-04-05T02:53:25.384Z,1.90
2023-04-05T02:54:29.938Z,2.40
2023-04-05T02:55:34.279Z,2.00
2023-04-05T02:56:37.095Z,2.00
2023-04-05T02:57:45.243Z,1.80
2023-04-05T02:58:49.188Z,2.00
2023-04-05T02:59:53.291Z,2.00
2023-04-05T03:00:56.584Z,2.50
2023-04-05T03:02:06.850Z,1.80
2023-04-05T03:03:09.876Z,1.60
2023-04-05T03:04:14.431Z,1.70
2023-04-05T03:05:16.766Z,1.20
2023-04-05T03:06:20.866Z,3.00
2023-04-05T03:07:24.306Z,2.60
2023-04-05T03:08:28.064Z,2.00
2023-04-05T03:09:34.891Z,1.90
2023-04-05T03:10:40.155Z,2.50
2023-04-05T03:11:47.233Z,1.30
2023-04-05T03:12:51.222Z,2.00
2023-04-05T03:13:56.022Z,1.30
2023-04-05T03:15:15.205Z,1.30
2023-04-05T03:16:19.723Z,1.40
2023-04-05T03:17:22.012Z,1.90
2023-04-05T03:18:28.995Z,1.50
2023-04-05T03:19:33.186Z,1.50
2023-04-05T03:20:38.669Z,1.60
2023-04-05T03:21:41.200Z,2.00
2023-04-05T03:22:45.318Z,2.40
2023-04-05T03:23:48.240Z,2.09
2023-04-05T03:24:52.761Z,1.80
2023-04-05T03:26:02.723Z,2.00
2023-04-05T03:27:06.742Z,1.20
2023-04-05T03:28:10.800Z,1.70
2023-04-05T03:30:27.103Z,2.20
2023-04-05T03:31:31.271Z,0.60
2023-04-05T03:32:35.581Z,2.50
2023-04-05T03:33:39.588Z,1.90
2023-04-05T03:34:42.797Z,2.50
2023-04-05T03:35:46.534Z,2.80
2023-04-05T03:36:49.359Z,2.50
2023-04-05T03:37:54.581Z,1.80
2023-04-05T03:38:58.512Z,2.50
2023-04-05T03:40:00.802Z,2.30
2023-04-05T03:41:02.965Z,2.30
2023-04-05T03:42:05.633Z,1.70
2023-04-05T03:43:07.896Z,2.30
2023-04-05T03:44:10.571Z,2.00
2023-04-05T03:45:18.171Z,1.60
2023-04-05T03:46:19.586Z,2.10
2023-04-05T03:47:22.469Z,2.10
2023-04-05T03:48:25.682Z,2.00
2023-04-05T03:49:28.230Z,2.00
2023-04-05T03:50:30.407Z,2.90
2023-04-05T03:51:32.567Z,2.00
2023-04-05T03:52:35.405Z,0.00
2023-04-05T03:53:38.688Z,2.90
2023-04-05T03:54:40.951Z,2.20
2023-04-05T03:55:43.865Z,2.00
2023-04-05T03:56:46.318Z,2.00
2023-04-05T03:57:51.432Z,0.50
2023-04-05T03:58:55.548Z,2.00
2023-04-05T03:59:59.453Z,2.40
2023-04-05T04:01:03.642Z,2.90
2023-04-05T04:02:05.900Z,2.00
2023-04-05T04:03:08.149Z,2.60
2023-04-05T04:04:12.864Z,2.80
2023-04-05T04:05:17.098Z,3.40
2023-04-05T04:06:21.629Z,3.00
2023-04-05T04:07:24.128Z,2.50
2023-04-05T04:08:26.199Z,2.70
2023-04-05T04:09:29.267Z,2.50
2023-04-05T04:10:35.368Z,2.60
2023-04-05T04:11:38.139Z,3.00
2023-04-05T04:12:41.872Z,3.40
2023-04-05T04:13:44.786Z,3.55
2023-04-05T04:14:51.405Z,3.30
2023-04-05T04:16:01.325Z,4.00
2023-04-05T04:17:35.474Z,3.30
2023-04-05T04:20:06.882Z,4.20
2023-04-05T04:22:39.489Z,2.30
2023-04-05T04:26:12.989Z,4.60
2023-04-05T04:27:22.824Z,4.00
2023-04-05T04:29:48.964Z,4.00
2023-04-05T04:31:02.120Z,3.60
2023-04-05T04:32:09.813Z,2.40
2023-04-05T04:34:27.497Z,3.20
2023-04-05T04:35:44.494Z,3.20
2023-04-05T04:36:55.144Z,2.30
2023-04-05T04:38:07.474Z,3.00
2023-04-05T04:39:15.522Z,2.90
2023-04-05T04:40:23.256Z,3.00
2023-04-05T04:41:37.515Z,2.80
2023-04-05T04:42:58.570Z,2.70
2023-04-05T04:44:14.750Z,2.10
2023-04-05T04:45:36.654Z,2.50
2023-04-05T04:46:44.925Z,3.20
2023-04-05T04:49:11.653Z,4.60
2023-04-05T04:50:17.456Z,4.20
2023-04-05T04:51:19.621Z,3.40
2023-04-05T04:52:22.288Z,3.20
2023-04-05T04:53:25.815Z,3.91
2023-04-05T04:54:27.918Z,2.90
2023-04-05T04:55:31.016Z,3.10
2023-04-05T04:56:34.236Z,3.00
2023-04-05T04:57:36.560Z,3.50
2023-04-05T04:58:38.709Z,3.20
2023-04-05T04:59:42.895Z,2.70
2023-04-05T05:00:45.309Z,3.00
2023-04-05T05:01:47.635Z,3.30
2023-04-05T05:02:51.316Z,3.20
2023-04-05T05:03:53.589Z,2.70
2023-04-05T05:04:57.877Z,2.70
2023-04-05T05:06:00.044Z,2.90
2023-04-05T05:07:05.116Z,3.00
2023-04-05T05:08:10.673Z,3.80
2023-04-05T05:09:15.067Z,3.00
2023-04-05T05:10:22.088Z,3.30
2023-04-05T05:11:24.380Z,2.50
2023-04-05T05:12:26.664Z,2.80
2023-04-05T05:13:30.858Z,3.20
2023-04-05T05:14:34.062Z,2.60
2023-04-05T05:15:38.082Z,3.40
2023-04-05T05:16:40.731Z,3.50
2023-04-05T05:17:42.968Z,3.90
2023-04-05T05:18:45.921Z,3.40
2023-04-05T05:19:47.960Z,4.10
2023-04-05T05:20:51.361Z,3.60
2023-04-05T05:21:53.598Z,2.90
2023-04-05T05:22:55.905Z,3.50
2023-04-05T05:23:58.085Z,3.50
2023-04-05T05:25:00.604Z,3.10
2023-04-05T05:26:02.850Z,3.90
2023-04-05T05:27:05.058Z,3.60
2023-04-05T05:28:07.024Z,4.00
2023-04-05T05:29:09.779Z,3.22
2023-04-05T05:30:14.559Z,3.90
2023-04-05T05:31:17.216Z,4.90
2023-04-05T05:32:19.644Z,4.30
2023-04-05T05:33:21.554Z,4.67
2023-04-05T05:34:23.589Z,5.00
2023-04-05T05:35:27.649Z,5.10
2023-04-05T05:36:29.890Z,5.20
2023-04-05T05:37:33.926Z,5.60
2023-04-05T05:38:35.945Z,6.30
2023-04-05T05:39:38.416Z,6.40
2023-04-05T05:40:41.041Z,6.20
2023-04-05T05:41:44.681Z,4.70
2023-04-05T05:42:47.974Z,4.20
2023-04-05T05:43:50.211Z,5.60
2023-04-05T05:44:52.876Z,5.20
2023-04-05T05:45:55.104Z,4.40
2023-04-05T05:46:57.803Z,6.00
2023-04-05T05:48:00.123Z,5.40
2023-04-05T05:49:02.520Z,5.10
2023-04-05T05:50:06.548Z,4.80
2023-04-05T05:51:08.587Z,3.90
2023-04-05T05:52:10.895Z,5.10
2023-04-05T05:53:13.211Z,5.00
2023-04-05T05:54:15.481Z,5.40
2023-04-05T05:55:19.499Z,5.00
2023-04-05T05:56:21.667Z,1.20
2023-04-05T05:57:23.865Z,6.30
2023-04-05T05:58:26.253Z,5.80
2023-04-05T05:59:28.585Z,5.40
2023-04-05T06:00:31.252Z,4.91
2023-04-05T06:01:33.344Z,5.40
2023-04-05T06:02:35.727Z,5.30
2023-04-05T06:03:38.051Z,5.30
2023-04-05T06:04:40.592Z,5.30
2023-04-05T06:05:57.352Z,5.40
2023-04-05T06:07:00.227Z,4.50
2023-04-05T06:08:02.721Z,5.00
2023-04-05T06:09:04.974Z,5.60
2023-04-05T06:10:08.861Z,4.64
2023-04-05T06:12:29.230Z,5.80
2023-04-05T06:13:31.784Z,2.80
2023-04-05T06:14:33.882Z,4.90
2023-04-05T06:15:36.577Z,4.80
2023-04-05T06:16:39.276Z,2.70
2023-04-05T06:17:41.590Z,4.90
2023-04-05T06:18:44.569Z,5.00
2023-04-05T06:19:46.943Z,5.45
2023-04-05T06:20:49.222Z,6.70
2023-04-05T06:21:51.283Z,7.00
2023-04-05T06:22:53.399Z,6.40
2023-04-05T06:23:55.468Z,6.20
2023-04-05T06:24:58.260Z,6.10
2023-04-05T06:26:00.656Z,5.82
2023-04-05T06:27:03.285Z,3.30
2023-04-05T06:28:06.840Z,4.80
2023-04-05T06:29:09.071Z,4.60
2023-04-05T06:30:14.106Z,4.90
2023-04-05T06:31:18.537Z,5.00
2023-04-05T06:32:21.875Z,4.70
2023-04-05T06:33:25.034Z,5.60
2023-04-05T06:34:27.136Z,4.30
2023-04-05T06:35:29.709Z,5.10
2023-04-05T06:36:32.416Z,4.70
2023-04-05T06:37:34.385Z,4.40
2023-04-05T06:38:36.768Z,6.22
2023-04-05T06:39:38.955Z,5.20
2023-04-05T06:40:41.442Z,6.00
2023-04-05T06:41:44.134Z,6.00
2023-04-05T06:42:46.695Z,5.20
2023-04-05T06:43:50.795Z,7.20
2023-04-05T06:44:52.959Z,6.36
2023-04-05T06:45:56.746Z,6.20
2023-04-05T06:46:59.969Z,5.70
2023-04-05T06:48:02.236Z,5.40
2023-04-05T06:49:05.056Z,4.40
2023-04-05T06:50:09.229Z,5.00
2023-04-05T06:51:11.525Z,4.60
2023-04-05T06:52:13.684Z,6.10
2023-04-05T06:53:18.680Z,4.40
2023-04-05T06:54:20.915Z,5.80
2023-04-05T06:55:23.022Z,3.90
2023-04-05T06:56:25.602Z,4.60
2023-04-05T06:57:27.645Z,3.60
2023-04-05T06:58:30.007Z,4.50
2023-04-05T06:59:33.140Z,4.70
2023-04-05T07:00:35.701Z,4.50
2023-04-05T07:01:37.868Z,4.20
2023-04-05T07:02:39.994Z,3.10
2023-04-05T07:03:42.734Z,3.40
2023-04-05T07:04:46.123Z,3.80
2023-04-05T07:05:57.860Z,3.20
2023-04-05T07:07:01.586Z,0.00
2023-04-05T07:08:04.480Z,3.20
2023-04-05T07:09:07.712Z,3.45
2023-04-05T07:10:11.326Z,4.20
2023-04-05T07:11:14.157Z,3.73
2023-04-05T07:12:16.304Z,3.55
2023-04-05T07:13:20.057Z,3.40
2023-04-05T07:14:22.752Z,3.10
2023-04-05T07:15:24.970Z,3.50
2023-04-05T07:16:27.392Z,3.60
2023-04-05T07:17:30.203Z,3.60
2023-04-05T07:18:32.513Z,3.55
2023-04-05T07:19:34.453Z,4.60
2023-04-05T07:20:37.827Z,4.00
2023-04-05T07:21:39.931Z,0.20
2023-04-05T07:22:41.918Z,4.30
2023-04-05T07:23:44.100Z,4.90
2023-04-05T07:24:46.821Z,5.10
2023-04-05T07:25:51.431Z,4.70
2023-04-05T07:26:54.143Z,5.00
2023-04-05T07:27:56.201Z,5.00
2023-04-05T07:28:58.843Z,5.30
2023-04-05T07:30:02.092Z,4.60
2023-04-05T07:31:05.765Z,4.00
2023-04-05T07:32:08.748Z,5.00
2023-04-05T07:33:10.959Z,5.60
2023-04-05T07:34:13.783Z,4.80
2023-04-05T07:35:16.165Z,5.50
2023-04-05T07:36:18.700Z,2.36
2023-04-05T07:37:21.167Z,5.70
2023-04-05T07:38:24.041Z,4.70
2023-04-05T07:39:26.812Z,5.40
2023-04-05T07:40:29.353Z,6.70
2023-04-05T07:41:31.415Z,5.50
2023-04-05T07:42:34.838Z,0.70
2023-04-05T07:43:37.059Z,6.60
2023-04-05T07:44:39.743Z,5.30
2023-04-05T07:45:41.926Z,5.80
2023-04-05T07:46:47.595Z,7.20
2023-04-05T07:47:49.155Z,8.00
2023-04-05T07:48:51.300Z,8.70
2023-04-05T07:49:53.580Z,6.20
2023-04-05T07:50:56.575Z,7.30
2023-04-05T07:51:59.153Z,6.45
2023-04-05T07:53:02.013Z,6.10
2023-04-05T07:54:06.060Z,6.45
2023-04-05T07:55:10.558Z,3.80
2023-04-05T07:56:13.640Z,6.10
2023-04-05T07:57:16.814Z,5.60
2023-04-05T07:58:18.971Z,6.60
2023-04-05T07:59:21.335Z,7.10
2023-04-05T08:00:24.396Z,7.20
2023-04-05T08:01:26.629Z,6.64
2023-04-05T08:02:28.912Z,7.90
2023-04-05T08:03:32.724Z,7.50
2023-04-05T08:04:35.052Z,7.20
2023-04-05T08:05:37.293Z,7.20
2023-04-05T08:06:40.121Z,7.30
2023-04-05T08:07:43.210Z,7.90
2023-04-05T08:08:46.726Z,7.40
2023-04-05T08:09:48.755Z,7.30
2023-04-05T08:10:51.785Z,6.30
2023-04-05T08:11:53.853Z,6.90
2023-04-05T08:12:55.962Z,8.00
2023-04-05T08:13:58.176Z,7.00
2023-04-05T08:15:00.931Z,7.40
2023-04-05T08:16:05.025Z,8.50
2023-04-05T08:17:07.210Z,7.50
2023-04-05T08:18:09.459Z,6.30
2023-04-05T08:19:14.031Z,6.00
2023-04-05T08:20:17.518Z,6.70
2023-04-05T08:21:20.128Z,6.90
2023-04-05T08:22:23.247Z,6.50
2023-04-05T08:23:25.248Z,6.30
2023-04-05T08:24:27.513Z,6.90
2023-04-05T08:25:30.971Z,7.90
2023-04-05T08:26:33.313Z,5.90
2023-04-05T08:27:35.489Z,5.90
2023-04-05T08:28:37.585Z,6.70
2023-04-05T08:29:40.690Z,5.60
2023-04-05T08:30:43.394Z,6.10
2023-04-05T08:31:45.893Z,6.70
2023-04-05T08:32:49.515Z,7.80
2023-04-05T08:33:51.793Z,7.80
2023-04-05T08:34:54.963Z,6.30
2023-04-05T08:35:57.194Z,6.50
2023-04-05T08:36:59.612Z,6.70
2023-04-05T08:38:01.723Z,7.60
2023-04-05T08:39:03.893Z,7.50
2023-04-05T08:40:07.909Z,7.00
2023-04-05T08:41:20.207Z,6.60
2023-04-05T08:42:33.093Z,8.00
2023-04-05T08:44:01.836Z,7.50
2023-04-05T08:45:08.244Z,6.60
2023-04-05T08:46:13.998Z,6.40
2023-04-05T08:47:18.489Z,6.40
2023-04-05T08:48:20.489Z,7.60
2023-04-05T08:49:24.435Z,7.20
2023-04-05T08:50:26.669Z,5.90
2023-04-05T08:51:28.853Z,7.70
2023-04-05T08:52:33.079Z,7.10
2023-04-05T08:53:35.719Z,7.80
2023-04-05T08:54:38.843Z,7.30
2023-04-05T08:55:42.224Z,7.60
2023-04-05T08:56:47.916Z,7.90
2023-04-05T08:59:07.329Z,8.00
2023-04-05T09:00:11.719Z,7.70
2023-04-05T09:01:14.988Z,7.20
2023-04-05T09:02:19.667Z,6.70
2023-04-05T09:03:23.787Z,6.50
2023-04-05T09:04:28.862Z,2.60
2023-04-05T09:05:33.163Z,7.60
2023-04-05T09:06:36.233Z,8.20
2023-04-05T09:07:38.668Z,6.18
2023-04-05T09:08:41.044Z,6.70
2023-04-05T09:09:53.252Z,6.70
2023-04-05T09:10:55.930Z,6.40
2023-04-05T09:11:58.841Z,7.50
2023-04-05T09:13:01.304Z,8.36
2023-04-05T09:14:05.460Z,8.00
2023-04-05T09:15:08.276Z,8.10
2023-04-05T09:16:15.260Z,6.90
2023-04-05T09:17:18.618Z,8.70
2023-04-05T09:18:26.916Z,7.60
2023-04-05T09:19:24.762Z,9.40
2023-04-05T09:20:27.054Z,9.20
2023-04-05T09:21:29.234Z,9.30
2023-04-05T09:22:35.283Z,10.90
2023-04-05T09:23:38.769Z,8.70
2023-04-05T09:25:53.918Z,9.20
2023-04-05T09:27:16.488Z,8.80
2023-04-05T09:28:20.310Z,9.60
2023-04-05T09:29:29.803Z,8.90
2023-04-05T09:30:33.414Z,8.70
2023-04-05T09:31:36.931Z,3.80
2023-04-05T09:32:46.417Z,6.70
2023-04-05T09:33:48.582Z,7.50
2023-04-05T09:34:53.960Z,9.20
2023-04-05T09:35:58.703Z,8.40
2023-04-05T09:37:01.719Z,8.00
2023-04-05T09:38:04.977Z,7.60
2023-04-05T09:39:09.818Z,8.40
2023-04-05T09:40:12.747Z,8.90
2023-04-05T09:41:14.825Z,8.40
2023-04-05T09:42:18.983Z,7.20
2023-04-05T09:44:57.888Z,8.10
2023-04-05T09:46:01.839Z,7.10
2023-04-05T09:47:15.748Z,7.50
2023-04-05T09:48:18.139Z,7.60
2023-04-05T09:49:32.702Z,8.30
2023-04-05T09:50:35.805Z,4.90
2023-04-05T09:51:40.960Z,7.90
2023-04-05T09:52:45.757Z,8.90
2023-04-05T09:54:02.861Z,7.45
2023-04-05T09:55:07.110Z,3.50
2023-04-05T09:56:11.039Z,7.30
2023-04-05T09:57:16.521Z,7.30
2023-04-05T09:58:19.926Z,7.80
2023-04-05T09:59:22.279Z,7.20
2023-04-05T10:00:26.286Z,8.40
2023-04-05T10:01:30.805Z,8.70
2023-04-05T10:03:49.181Z,8.80
2023-04-05T10:04:51.491Z,8.70
2023-04-05T10:05:56.636Z,8.60
2023-04-05T10:06:59.336Z,8.10
2023-04-05T10:08:02.075Z,7.10
2023-04-05T10:09:06.745Z,9.30
2023-04-05T10:10:10.897Z,8.60
2023-04-05T10:11:13.826Z,8.70
2023-04-05T10:13:38.522Z,8.30
2023-04-05T10:14:41.713Z,7.20
2023-04-05T10:15:46.665Z,7.40
2023-04-05T10:16:52.757Z,4.50
2023-04-05T10:17:58.641Z,8.10
2023-04-05T10:19:01.255Z,9.40
2023-04-05T10:20:15.447Z,9.20
2023-04-05T10:21:22.779Z,7.80
2023-04-05T10:24:28.388Z,7.40
2023-04-05T10:25:55.522Z,8.20
2023-04-05T10:28:30.325Z,6.70
2023-04-05T10:29:36.169Z,7.70
2023-04-05T10:30:44.654Z,5.30
2023-04-05T10:31:54.010Z,7.90
2023-04-05T10:33:03.022Z,6.00
2023-04-05T10:34:07.669Z,6.60
2023-04-05T10:35:30.609Z,7.40
2023-04-05T10:36:48.640Z,9.60
2023-04-05T10:38:09.684Z,8.30
2023-04-05T10:39:42.717Z,7.90
2023-04-05T10:40:47.028Z,7.50
2023-04-05T10:43:12.372Z,7.80
2023-04-05T10:44:25.803Z,7.20
2023-04-05T10:45:19.339Z,6.50
2023-04-05T10:46:22.173Z,7.00
2023-04-05T10:47:27.253Z,6.60
2023-04-05T10:48:54.881Z,6.90
2023-04-05T10:50:00.437Z,7.70
2023-04-05T10:51:04.266Z,7.50
2023-04-05T10:52:07.066Z,7.00
2023-04-05T10:53:10.135Z,7.73
2023-04-05T10:54:13.513Z,8.10
2023-04-05T10:55:16.381Z,7.70
2023-04-05T10:56:19.921Z,7.40
2023-04-05T10:57:22.883Z,6.82
2023-04-05T10:58:26.501Z,7.73
2023-04-05T10:59:29.759Z,8.20
2023-04-05T11:00:35.644Z,7.60
2023-04-05T11:01:38.805Z,8.10
2023-04-05T11:02:42.211Z,7.80
2023-04-05T11:03:48.542Z,7.70
2023-04-05T11:04:55.517Z,7.10
2023-04-05T11:06:18.138Z,7.50
2023-04-05T11:07:20.582Z,7.00
2023-04-05T11:08:24.512Z,5.70
2023-04-05T11:09:26.997Z,8.40
2023-04-05T11:10:36.330Z,7.27
2023-04-05T11:11:42.434Z,8.10
2023-04-05T11:12:55.327Z,8.50
2023-04-05T11:13:57.870Z,8.80
2023-04-05T11:15:29.700Z,8.60
2023-04-05T11:16:40.928Z,7.00
2023-04-05T11:17:47.603Z,7.80
2023-04-05T11:18:51.970Z,8.80
2023-04-05T11:20:06.801Z,7.80
2023-04-05T11:21:08.944Z,8.50
2023-04-05T11:22:12.218Z,9.00
2023-04-05T11:23:17.483Z,8.10
2023-04-05T11:24:22.334Z,9.40
2023-04-05T11:25:26.684Z,5.60
2023-04-05T11:28:01.237Z,7.50
2023-04-05T11:29:03.992Z,9.70
2023-04-05T11:30:09.503Z,8.60
2023-04-05T11:31:19.843Z,9.60
2023-04-05T11:32:24.934Z,9.00
2023-04-05T11:33:55.640Z,7.80
2023-04-05T11:35:15.963Z,8.30
2023-04-05T11:36:47.706Z,7.20
2023-04-05T11:37:55.651Z,8.00
2023-04-05T11:39:21.074Z,9.90
2023-04-05T11:40:32.927Z,8.40
2023-04-05T11:41:35.005Z,7.60
2023-04-05T11:42:37.750Z,8.50
2023-04-05T11:43:41.666Z,9.09
2023-04-05T11:44:48.614Z,7.90
2023-04-05T11:45:55.911Z,1.30
2023-04-05T11:48:17.384Z,11.20
2023-04-05T11:49:24.457Z,12.10
2023-04-05T11:50:29.423Z,11.10
2023-04-05T11:51:33.506Z,13.90
2023-04-05T11:52:37.739Z,12.10
2023-04-05T11:53:39.875Z,12.70
2023-04-05T11:54:43.868Z,12.30
2023-04-05T11:55:52.753Z,12.50
2023-04-05T11:56:55.354Z,11.70
2023-04-05T11:57:57.632Z,10.40
2023-04-05T11:59:03.305Z,10.80
2023-04-05T12:00:09.489Z,9.80
2023-04-05T12:01:14.078Z,10.10
2023-04-05T12:02:16.197Z,10.73
2023-04-05T12:03:18.280Z,9.00
2023-04-05T12:04:20.870Z,11.20
2023-04-05T12:05:24.790Z,10.90
2023-04-05T12:06:27.134Z,9.00
2023-04-05T12:07:30.514Z,10.50
2023-04-05T12:08:49.098Z,9.70
2023-04-05T12:10:09.648Z,10.60
2023-04-05T12:11:13.764Z,10.90
2023-04-05T12:12:16.719Z,9.90
2023-04-05T12:13:29.994Z,8.27
2023-04-05T12:14:34.134Z,9.00
2023-04-05T12:16:50.568Z,9.80
2023-04-05T12:17:52.987Z,10.60
2023-04-05T12:18:59.883Z,9.10
2023-04-05T12:20:02.811Z,11.70
2023-04-05T12:21:08.197Z,11.30
2023-04-05T12:22:10.389Z,10.10
2023-04-05T12:23:13.286Z,9.60
2023-04-05T12:24:15.457Z,6.36
2023-04-05T12:25:18.535Z,9.60
2023-04-05T12:26:22.011Z,12.70
2023-04-05T12:27:24.928Z,11.30
2023-04-05T12:28:48.220Z,11.64
2023-04-05T12:30:10.283Z,11.10
2023-04-05T12:31:12.584Z,11.20
2023-04-05T12:32:15.500Z,11.10
2023-04-05T12:33:31.540Z,10.36
2023-04-05T12:34:36.024Z,10.50
2023-04-05T12:35:40.125Z,10.10
2023-04-05T12:36:51.090Z,9.70
2023-04-05T12:37:53.308Z,9.70
2023-04-05T12:38:55.530Z,9.60
2023-04-05T12:40:04.370Z,9.60
2023-04-05T12:41:07.703Z,8.80
2023-04-05T12:42:15.532Z,10.20
2023-04-05T12:43:18.313Z,11.20
2023-04-05T12:44:33.010Z,10.70
2023-04-05T12:45:36.349Z,6.80
2023-04-05T12:46:44.653Z,8.90
2023-04-05T12:48:59.722Z,7.80
2023-04-05T12:50:16.089Z,10.00
2023-04-05T12:51:21.048Z,8.50
2023-04-05T12:52:34.353Z,8.10
2023-04-05T12:54:56.621Z,9.90
2023-04-05T12:55:58.669Z,8.70
2023-04-05T12:57:02.889Z,8.10
2023-04-05T12:58:06.490Z,8.50
2023-04-05T12:59:08.586Z,10.00
2023-04-05T13:00:16.458Z,8.00
2023-04-05T13:01:19.397Z,9.00
2023-04-05T13:02:21.808Z,8.20
2023-04-05T13:03:26.301Z,9.50
2023-04-05T13:04:28.632Z,8.60
2023-04-05T13:05:30.955Z,8.90
2023-04-05T13:06:38.042Z,8.20
2023-04-05T13:07:40.423Z,7.80
2023-04-05T13:08:47.280Z,8.20
2023-04-05T13:09:49.397Z,9.50
2023-04-05T13:10:57.310Z,7.50
2023-04-05T13:11:58.902Z,9.60
2023-04-05T13:13:01.971Z,9.30
2023-04-05T13:14:05.893Z,10.50
2023-04-05T13:16:19.497Z,11.00
2023-04-05T13:17:21.892Z,9.60
2023-04-05T13:18:27.684Z,10.60
2023-04-05T13:19:29.707Z,8.70
2023-04-05T13:20:33.025Z,8.90
2023-04-05T13:21:35.712Z,9.18
2023-04-05T13:22:38.803Z,8.20
2023-04-05T13:23:41.406Z,9.40
2023-04-05T13:24:43.383Z,8.50
2023-04-05T13:25:45.458Z,8.44
2023-04-05T13:26:48.497Z,8.00
2023-04-05T13:27:50.559Z,8.60
2023-04-05T13:28:52.777Z,9.20
2023-04-05T13:29:55.987Z,8.90
2023-04-05T13:30:59.580Z,8.40
2023-04-05T13:32:01.877Z,9.30
2023-04-05T13:33:05.338Z,8.70
2023-04-05T13:34:07.494Z,9.00
2023-04-05T13:35:11.352Z,10.10
2023-04-05T13:36:14.734Z,8.80
2023-04-05T13:37:16.983Z,8.50
2023-04-05T13:38:24.220Z,7.80
2023-04-05T13:39:26.794Z,8.80
2023-04-05T13:40:31.130Z,7.60
2023-04-05T13:41:33.255Z,7.70
2023-04-05T13:42:35.305Z,8.60
2023-04-05T13:43:38.025Z,8.60
2023-04-05T13:44:40.743Z,6.10
2023-04-05T13:45:43.631Z,10.00
2023-04-05T13:46:47.361Z,7.20
2023-04-05T13:47:49.635Z,8.50
2023-04-05T13:48:52.806Z,9.00
2023-04-05T13:49:55.097Z,10.20
2023-04-05T13:50:57.587Z,9.60
2023-04-05T13:52:00.566Z,9.40
2023-04-05T13:53:03.036Z,10.09
2023-04-05T13:54:05.238Z,10.20
2023-04-05T13:55:09.175Z,10.00
2023-04-05T13:56:12.594Z,9.60
2023-04-05T13:57:14.950Z,9.40
2023-04-05T13:58:17.024Z,9.20
2023-04-05T13:59:20.273Z,8.70
2023-04-05T14:00:22.858Z,11.10
2023-04-05T14:01:26.228Z,7.70
2023-04-05T14:02:30.555Z,8.70
2023-04-05T14:03:32.739Z,1.90
2023-04-05T14:04:35.404Z,8.70
2023-04-05T14:05:37.559Z,8.20
2023-04-05T14:06:43.897Z,7.80
2023-04-05T14:07:46.220Z,8.90
2023-04-05T14:08:48.459Z,7.90
2023-04-05T14:09:50.663Z,8.60
2023-04-05T14:10:53.163Z,8.80
2023-04-05T14:11:56.950Z,8.10
2023-04-05T14:12:59.981Z,8.40
2023-04-05T14:14:03.216Z,7.91
2023-04-05T14:15:06.480Z,9.10
2023-04-05T14:16:09.266Z,8.00
2023-04-05T14:17:11.528Z,7.50
2023-04-05T14:18:14.409Z,9.10
2023-04-05T14:19:17.891Z,8.91
2023-04-05T14:20:20.253Z,8.90
2023-04-05T14:21:24.623Z,8.40
2023-04-05T14:22:30.256Z,6.80
2023-04-05T14:23:32.727Z,8.40
2023-04-05T14:24:36.354Z,8.50
2023-04-05T14:25:43.526Z,8.40
2023-04-05T14:26:46.249Z,8.10
2023-04-05T14:27:48.549Z,8.90
2023-04-05T14:28:53.089Z,8.20
2023-04-05T14:29:58.147Z,8.50
2023-04-05T14:31:02.000Z,9.30
2023-04-05T14:32:05.754Z,8.60
2023-04-05T14:33:08.476Z,9.20
2023-04-05T14:34:15.708Z,4.50
2023-04-05T14:35:21.080Z,9.00
2023-04-05T14:36:23.740Z,6.10
2023-04-05T14:37:26.034Z,7.40
2023-04-05T14:38:30.392Z,8.00
2023-04-05T14:39:33.282Z,7.40
2023-04-05T14:40:36.233Z,8.20
2023-04-05T14:41:39.536Z,7.60
2023-04-05T14:42:49.276Z,8.40
2023-04-05T14:43:46.457Z,8.20
2023-04-05T14:44:48.745Z,7.60
2023-04-05T14:45:51.616Z,9.40
2023-04-05T14:46:54.468Z,8.60
2023-04-05T14:47:57.795Z,8.60
2023-04-05T14:49:02.193Z,8.60
2023-04-05T14:50:07.312Z,7.70
2023-04-05T14:51:10.375Z,7.50
2023-04-05T14:52:12.721Z,8.30
2023-04-05T14:53:15.430Z,8.90